Time;durP1;ratioP1;P1;durP2;ratioP2;P2;SDS_P1;SDS_P2;PMS_P1;PMS_P2;Temp;Humidity;BMP_temperature;BMP_pressure;BME280_temperature;BME280_humidity;BME280_pressure;Samples;Min_cycle;Max_cycle;Signal;HPM_P1;HPM_P2
2021/07/18 00:01:52;;;;;;;22.10;19.77;;;18.80;99.90;;;;;;5049375;28;20562;-83
2021/07/18 00:04:18;;;;;;;23.40;20.93;;;18.80;99.90;;;;;;5030319;28;20178;-80
2021/07/18 00:06:44;;;;;;;24.37;20.07;;;18.80;99.90;;;;;;5048333;28;20201;-79
2021/07/18 00:09:10;;;;;;;22.63;20.40;;;18.80;99.90;;;;;;5047218;28;20174;-81
2021/07/18 00:11:36;;;;;;;22.33;20.13;;;18.80;99.90;;;;;;5032016;28;20182;-82
2021/07/18 00:14:03;;;;;;;21.87;19.70;;;18.70;99.90;;;;;;5049985;28;20177;-80
2021/07/18 00:16:32;;;;;;;20.20;18.40;;;18.70;99.90;;;;;;5047918;28;20533;-84
2021/07/18 00:18:58;;;;;;;22.47;19.97;;;18.60;99.90;;;;;;5051276;28;20184;-80
2021/07/18 00:21:26;;;;;;;22.03;19.87;;;18.70;99.90;;;;;;5036629;28;20682;-81
2021/07/18 00:23:53;;;;;;;22.20;19.87;;;18.60;99.90;;;;;;5052201;28;20189;-80
2021/07/18 00:26:21;;;;;;;23.20;20.80;;;18.50;99.90;;;;;;5052946;28;20177;-80
2021/07/18 00:28:47;;;;;;;21.03;19.07;;;18.50;99.90;;;;;;5054519;28;20188;-79
2021/07/18 00:31:13;;;;;;;22.13;19.67;;;18.40;99.90;;;;;;5052312;28;20237;-81
2021/07/18 00:33:39;;;;;;;22.43;20.13;;;18.40;99.90;;;;;;5035515;28;20212;-80
2021/07/18 00:36:08;;;;;;;21.87;19.70;;;18.40;99.90;;;;;;5052599;28;20185;-80
2021/07/18 00:38:39;;;;;;;21.67;19.57;;;18.30;99.90;;;;;;5053581;28;20171;-80
2021/07/18 00:41:05;;;;;;;21.13;19.20;;;18.30;99.90;;;;;;5053370;28;20198;-81
2021/07/18 00:43:32;;;;;;;24.93;20.20;;;18.20;99.90;;;;;;5053947;28;20196;-79
2021/07/18 00:45:59;;;;;;;21.67;19.37;;;18.20;99.90;;;;;;5052990;28;20173;-82
2021/07/18 00:48:27;;;;;;;22.20;20.00;;;18.20;99.90;;;;;;5034385;28;20295;-80
2021/07/18 00:50:55;;;;;;;21.83;19.53;;;18.10;99.90;;;;;;5051514;28;20254;-80
2021/07/18 00:53:21;;;;;;;21.87;19.73;;;18.20;99.90;;;;;;5034768;28;20228;-80
2021/07/18 00:55:47;;;;;;;23.67;19.30;;;18.20;99.90;;;;;;5034486;28;20173;-80
2021/07/18 00:58:14;;;;;;;20.90;18.90;;;18.20;99.90;;;;;;5051113;28;20220;-80
2021/07/18 01:00:40;;;;;;;20.63;18.53;;;18.10;99.90;;;;;;5050800;28;20164;-81
2021/07/18 01:03:07;;;;;;;20.37;18.37;;;18.10;99.90;;;;;;5051369;28;20189;-80
2021/07/18 01:05:33;;;;;;;21.87;18.73;;;18.10;99.90;;;;;;5033995;28;20184;-80
2021/07/18 01:07:59;;;;;;;21.30;19.30;;;18.00;99.90;;;;;;5031756;28;20208;-80
2021/07/18 01:10:25;;;;;;;21.77;19.17;;;18.00;99.90;;;;;;5052946;28;20200;-81
2021/07/18 01:12:51;;;;;;;23.67;19.60;;;18.00;99.90;;;;;;5051558;28;20589;-80
2021/07/18 01:15:17;;;;;;;23.27;19.30;;;18.10;99.90;;;;;;5051446;28;20199;-80
2021/07/18 01:17:42;;;;;;;19.13;17.33;;;18.10;99.90;;;;;;5051188;28;20201;-80
2021/07/18 01:20:09;;;;;;;24.87;19.27;;;18.20;99.90;;;;;;5048755;28;20190;-80
2021/07/18 01:22:37;;;;;;;20.23;18.30;;;18.20;99.90;;;;;;5047918;28;20177;-80
2021/07/18 01:25:09;;;;;;;22.33;18.20;;;18.30;99.90;;;;;;5050026;28;20184;-81
2021/07/18 01:27:40;;;;;;;22.17;18.27;;;18.30;99.90;;;;;;5049011;28;20217;-81
2021/07/18 01:30:10;;;;;;;18.70;16.80;;;18.30;99.90;;;;;;5052004;28;20203;-82
2021/07/18 01:32:37;;;;;;;18.37;16.27;;;18.40;99.90;;;;;;5047347;28;20199;-80
2021/07/18 01:35:05;;;;;;;21.50;16.93;;;18.40;99.90;;;;;;5051513;28;20183;-81
2021/07/18 01:37:31;;;;;;;17.57;15.07;;;18.40;99.90;;;;;;5032442;28;20547;-80
2021/07/18 01:39:56;;;;;;;17.13;15.43;;;18.40;99.90;;;;;;5050493;28;20213;-81
2021/07/18 01:42:24;;;;;;;17.07;14.77;;;18.40;99.90;;;;;;5048665;28;20195;-81
2021/07/18 01:44:50;;;;;;;17.63;14.50;;;18.40;99.90;;;;;;5051229;28;20184;-81
2021/07/18 01:47:16;;;;;;;16.17;14.63;;;18.40;99.90;;;;;;5046906;28;20645;-80
2021/07/18 01:49:42;;;;;;;17.23;14.27;;;18.50;99.90;;;;;;5032706;28;20192;-82
2021/07/18 01:52:08;;;;;;;19.20;14.77;;;18.40;99.90;;;;;;5032629;28;20231;-80
2021/07/18 01:54:34;;;;;;;16.73;15.03;;;18.20;99.90;;;;;;5035967;28;20183;-82
2021/07/18 01:57:29;;;;;;;17.17;14.30;;;18.20;99.90;;;;;;5041957;28;20224;-81
2021/07/18 01:59:55;;;;;;;19.40;14.43;;;18.10;99.90;;;;;;5029878;28;20197;-80
2021/07/18 02:02:20;;;;;;;14.00;12.70;;;18.20;99.90;;;;;;5043669;28;20196;-80
2021/07/18 02:04:51;;;;;;;18.40;15.33;;;18.20;99.90;;;;;;5043808;28;20253;-82
2021/07/18 02:07:17;;;;;;;15.43;12.63;;;18.20;99.90;;;;;;5042271;28;20250;-79
2021/07/18 02:09:43;;;;;;;15.07;13.57;;;18.20;99.90;;;;;;5045294;28;20173;-80
2021/07/18 02:12:10;;;;;;;14.57;13.17;;;18.20;99.90;;;;;;5045374;28;20208;-80
2021/07/18 02:14:37;;;;;;;13.33;11.97;;;18.10;99.90;;;;;;5040913;28;20175;-79
2021/07/18 02:17:04;;;;;;;13.80;12.40;;;18.10;99.90;;;;;;5042965;28;20197;-79
2021/07/18 02:19:31;;;;;;;15.33;12.40;;;18.00;99.90;;;;;;5045213;28;20664;-81
2021/07/18 02:21:58;;;;;;;14.33;12.83;;;18.10;99.90;;;;;;5043434;28;20184;-81
2021/07/18 02:24:24;;;;;;;15.50;12.50;;;18.00;99.90;;;;;;5042506;28;20181;-80
2021/07/18 02:26:51;;;;;;;16.80;13.50;;;18.00;99.90;;;;;;5041106;28;20197;-81
2021/07/18 02:29:16;;;;;;;14.77;12.10;;;18.00;99.90;;;;;;5042918;28;20180;-80
2021/07/18 02:31:42;;;;;;;18.40;13.10;;;18.00;99.90;;;;;;5042776;28;20239;-80
2021/07/18 02:34:08;;;;;;;14.10;12.80;;;17.90;99.90;;;;;;5043310;28;20179;-80
2021/07/18 02:36:34;;;;;;;13.43;12.23;;;17.90;99.90;;;;;;5042795;28;20192;-80
2021/07/18 02:39:00;;;;;;;13.77;12.57;;;17.80;99.90;;;;;;5041156;28;20173;-80
2021/07/18 02:41:27;;;;;;;15.77;14.13;;;17.90;99.90;;;;;;5024800;28;20181;-81
2021/07/18 02:43:53;;;;;;;15.30;13.77;;;17.90;99.90;;;;;;5042730;28;20185;-80
2021/07/18 02:46:22;;;;;;;16.07;13.43;;;17.90;99.90;;;;;;5044974;28;20186;-79
2021/07/18 02:48:47;;;;;;;14.43;12.90;;;17.90;99.90;;;;;;5043262;28;20194;-79
2021/07/18 02:51:13;;;;;;;15.20;12.60;;;17.80;99.90;;;;;;5041808;28;20645;-80
2021/07/18 02:53:39;;;;;;;13.80;12.50;;;17.80;99.90;;;;;;5043629;28;20228;-79
2021/07/18 02:56:05;;;;;;;14.87;13.33;;;17.90;99.90;;;;;;5044963;28;20195;-80
2021/07/18 02:58:30;;;;;;;14.27;12.73;;;17.80;99.90;;;;;;5026165;28;20213;-80
2021/07/18 03:00:56;;;;;;;14.50;13.10;;;17.90;99.90;;;;;;5025081;28;20180;-80
2021/07/18 03:03:22;;;;;;;12.70;11.60;;;17.80;99.90;;;;;;5046707;28;20196;-80
2021/07/18 03:05:48;;;;;;;14.60;13.10;;;17.80;99.90;;;;;;5049322;28;20208;-80
2021/07/18 03:08:13;;;;;;;15.70;13.27;;;17.70;99.90;;;;;;5048827;28;20261;-80
2021/07/18 03:10:39;;;;;;;18.13;12.00;;;17.60;99.90;;;;;;5046937;28;20186;-82
2021/07/18 03:13:05;;;;;;;13.97;12.20;;;17.60;99.90;;;;;;5043242;28;20329;-82
2021/07/18 03:15:31;;;;;;;13.87;12.47;;;17.70;99.90;;;;;;5044079;28;20181;-81
2021/07/18 03:17:56;;;;;;;13.40;12.20;;;17.70;99.90;;;;;;5045627;28;20200;-81
2021/07/18 03:20:23;;;;;;;12.37;10.83;;;17.80;99.90;;;;;;5024046;28;20702;-81
2021/07/18 03:22:49;;;;;;;13.23;11.93;;;17.80;99.90;;;;;;5043215;28;20189;-80
2021/07/18 03:25:16;;;;;;;13.30;11.27;;;17.80;99.90;;;;;;5038859;28;20215;-80
2021/07/18 03:27:43;;;;;;;15.47;11.60;;;17.80;99.90;;;;;;5042249;28;20203;-80
2021/07/18 03:30:11;;;;;;;14.43;11.73;;;17.70;99.90;;;;;;5043582;28;20177;-82
2021/07/18 03:32:37;;;;;;;12.23;11.07;;;17.60;99.90;;;;;;5040966;28;20262;-82
2021/07/18 03:35:05;;;;;;;14.30;11.27;;;17.70;99.90;;;;;;5043198;28;20213;-80
2021/07/18 03:37:31;;;;;;;13.17;11.57;;;17.50;99.90;;;;;;5041305;28;20201;-81
2021/07/18 03:39:57;;;;;;;12.13;10.73;;;17.50;99.90;;;;;;5044260;28;20190;-80
2021/07/18 03:42:22;;;;;;;15.27;12.67;;;17.40;99.90;;;;;;5042779;28;20240;-80
2021/07/18 03:44:48;;;;;;;16.27;12.30;;;17.40;99.90;;;;;;5045011;28;20591;-80
2021/07/18 03:47:14;;;;;;;17.87;12.43;;;17.20;99.90;;;;;;5026937;28;20235;-80
2021/07/18 03:49:39;;;;;;;12.97;11.77;;;17.30;99.90;;;;;;5045393;28;20180;-80
2021/07/18 03:52:05;;;;;;;13.73;12.33;;;17.20;99.90;;;;;;5027592;28;20198;-80
2021/07/18 03:54:31;;;;;;;14.67;12.23;;;17.30;99.90;;;;;;5049938;28;20183;-80
2021/07/18 03:56:57;;;;;;;17.57;12.77;;;17.40;99.90;;;;;;5045135;28;20193;-80
2021/07/18 03:59:23;;;;;;;23.17;13.20;;;17.30;99.90;;;;;;5047017;28;20199;-80
2021/07/18 04:01:48;;;;;;;14.50;12.47;;;17.20;99.90;;;;;;5025953;28;20176;-80
2021/07/18 04:04:14;;;;;;;16.03;12.73;;;17.30;99.90;;;;;;5041359;28;20188;-83
2021/07/18 04:06:40;;;;;;;16.93;12.40;;;17.30;99.90;;;;;;5026252;28;20197;-83
2021/07/18 04:09:05;;;;;;;17.57;13.30;;;17.40;99.90;;;;;;5046571;28;20178;-82
2021/07/18 04:11:31;;;;;;;14.43;12.23;;;17.40;99.90;;;;;;5046530;28;20180;-81
2021/07/18 04:13:57;;;;;;;13.83;11.90;;;17.40;99.90;;;;;;5029641;28;20244;-81
2021/07/18 04:16:22;;;;;;;12.83;11.47;;;17.40;99.90;;;;;;5045321;28;20176;-81
2021/07/18 04:18:48;;;;;;;14.47;11.17;;;17.50;99.90;;;;;;5051279;28;20236;-80
2021/07/18 04:21:19;;;;;;;16.13;11.90;;;17.40;99.90;;;;;;5051540;28;20248;-81
2021/07/18 04:23:45;;;;;;;12.13;10.83;;;17.40;99.90;;;;;;5050559;28;20234;-82
2021/07/18 04:26:11;;;;;;;13.33;12.03;;;17.40;99.90;;;;;;5049831;28;20178;-81
2021/07/18 04:28:36;;;;;;;12.80;11.47;;;17.30;99.90;;;;;;5051619;28;20215;-81
2021/07/18 04:31:02;;;;;;;15.03;11.10;;;17.30;99.90;;;;;;5033519;28;20183;-82
2021/07/18 04:33:27;;;;;;;17.90;11.90;;;17.30;99.90;;;;;;5052052;28;20212;-81
2021/07/18 04:35:53;;;;;;;13.93;11.53;;;17.30;99.90;;;;;;5042949;28;20242;-80
2021/07/18 04:38:18;;;;;;;14.10;12.03;;;17.30;99.90;;;;;;5043896;28;20199;-80
2021/07/18 04:40:44;;;;;;;15.23;12.23;;;17.30;99.90;;;;;;5043992;28;20667;-80
2021/07/18 04:43:10;;;;;;;13.13;11.70;;;17.30;99.90;;;;;;5042976;28;20190;-81
2021/07/18 04:45:36;;;;;;;17.90;12.17;;;17.30;99.90;;;;;;5025825;28;20191;-80
2021/07/18 04:48:02;;;;;;;13.20;11.97;;;17.30;99.90;;;;;;5044118;28;20735;-81
2021/07/18 04:50:28;;;;;;;13.17;11.73;;;17.30;99.90;;;;;;5028775;28;20200;-81
2021/07/18 04:52:53;;;;;;;17.60;13.03;;;17.30;99.90;;;;;;5047282;28;20206;-80
2021/07/18 04:55:20;;;;;;;13.20;12.10;;;17.40;99.90;;;;;;5045490;28;20201;-81
2021/07/18 04:57:46;;;;;;;15.33;12.63;;;17.40;99.90;;;;;;5046124;28;20230;-82
2021/07/18 05:00:14;;;;;;;13.87;12.63;;;17.40;99.90;;;;;;5044737;28;20726;-80
2021/07/18 05:02:41;;;;;;;13.27;12.10;;;17.40;99.90;;;;;;5026295;28;20185;-80
2021/07/18 05:05:10;;;;;;;13.97;11.40;;;17.50;99.90;;;;;;5042821;28;20185;-81
2021/07/18 05:07:50;;;;;;;14.40;12.27;;;17.50;99.90;;;;;;5033724;28;20294;-82
2021/07/18 05:10:17;;;;;;;15.43;12.50;;;17.70;99.90;;;;;;5035520;28;20546;-81
2021/07/18 05:12:44;;;;;;;14.83;12.17;;;17.80;99.90;;;;;;5049779;23;20748;-73
2021/07/18 05:15:11;;;;;;;13.30;11.83;;;17.80;99.90;;;;;;5052662;28;20267;-72
2021/07/18 05:17:37;;;;;;;13.80;12.37;;;17.90;99.90;;;;;;5052982;28;20259;-73
2021/07/18 05:20:04;;;;;;;11.57;10.47;;;18.00;99.90;;;;;;5053148;28;20260;-73
2021/07/18 05:22:30;;;;;;;13.50;11.80;;;18.00;99.90;;;;;;5053161;28;20209;-72
2021/07/18 05:24:56;;;;;;;13.73;11.33;;;18.00;99.90;;;;;;5053193;28;20176;-73
2021/07/18 05:27:22;;;;;;;11.60;10.50;;;18.10;99.90;;;;;;5053143;28;20181;-73
2021/07/18 05:29:48;;;;;;;11.60;10.60;;;18.10;99.90;;;;;;5051525;28;20191;-72
2021/07/18 05:32:14;;;;;;;10.73;9.67;;;18.20;99.90;;;;;;5053493;28;20258;-73
2021/07/18 05:34:39;;;;;;;10.93;9.87;;;18.30;99.90;;;;;;5054822;28;20177;-73
2021/07/18 05:37:06;;;;;;;9.43;8.63;;;18.40;99.90;;;;;;5054973;28;20184;-72
2021/07/18 05:39:32;;;;;;;11.13;8.67;;;18.40;99.90;;;;;;5054355;28;20185;-71
2021/07/18 05:41:59;;;;;;;16.20;8.27;;;18.50;99.90;;;;;;4997840;28;20209;-73
2021/07/18 05:44:26;;;;;;;11.30;8.60;;;18.60;99.90;;;;;;5034851;28;20181;-73
2021/07/18 05:46:51;;;;;;;8.83;7.73;;;18.70;99.90;;;;;;5034616;28;20185;-72
2021/07/18 05:49:17;;;;;;;11.90;8.20;;;18.70;99.90;;;;;;5034502;28;20658;-71
2021/07/18 05:51:43;;;;;;;8.07;7.27;;;18.80;99.90;;;;;;5034789;28;20202;-72
2021/07/18 05:54:08;;;;;;;7.60;6.83;;;18.80;99.90;;;;;;5030882;28;20634;-72
2021/07/18 05:56:34;;;;;;;7.27;6.57;;;18.90;99.90;;;;;;5016710;28;20224;-72
2021/07/18 05:59:00;;;;;;;10.50;6.60;;;18.90;99.90;;;;;;5017378;28;20523;-73
2021/07/18 06:01:25;;;;;;;6.80;6.20;;;19.00;99.90;;;;;;5034374;28;20239;-73
2021/07/18 06:03:51;;;;;;;7.83;6.47;;;19.10;99.90;;;;;;5016897;28;20186;-72
2021/07/18 06:06:16;;;;;;;6.27;5.63;;;19.20;99.90;;;;;;5033528;28;20185;-72
2021/07/18 06:08:42;;;;;;;6.60;5.87;;;19.20;99.90;;;;;;5034331;28;20707;-73
2021/07/18 06:11:08;;;;;;;9.83;6.47;;;19.30;99.90;;;;;;5034155;28;20181;-72
2021/07/18 06:13:33;;;;;;;13.43;5.93;;;19.40;99.90;;;;;;5033948;28;20210;-72
2021/07/18 06:15:59;;;;;;;8.53;5.60;;;19.40;99.90;;;;;;5033272;28;20177;-73
2021/07/18 06:18:25;;;;;;;5.53;5.10;;;19.20;99.90;;;;;;5034226;28;20174;-73
2021/07/18 06:20:50;;;;;;;9.20;6.07;;;19.30;99.90;;;;;;5034257;28;20666;-72
2021/07/18 06:23:16;;;;;;;8.60;5.13;;;19.30;99.90;;;;;;5033861;28;20341;-73
2021/07/18 06:25:42;;;;;;;8.23;5.10;;;19.30;99.90;;;;;;5033902;28;20181;-72
2021/07/18 06:28:07;;;;;;;8.00;5.30;;;19.40;99.90;;;;;;5033789;28;20174;-73
2021/07/18 06:30:33;;;;;;;5.93;5.33;;;19.40;99.90;;;;;;5034293;28;20310;-72
2021/07/18 06:32:58;;;;;;;12.73;5.30;;;19.40;99.90;;;;;;5033758;28;20252;-72
2021/07/18 06:35:24;;;;;;;5.83;5.33;;;19.50;99.90;;;;;;5033881;28;20200;-72
2021/07/18 06:37:50;;;;;;;7.73;5.27;;;19.60;99.90;;;;;;5016002;28;20253;-72
2021/07/18 06:40:17;;;;;;;7.97;5.47;;;19.70;99.90;;;;;;5015756;28;20174;-73
2021/07/18 06:42:42;;;;;;;8.97;5.20;;;19.80;99.90;;;;;;5033710;28;20202;-72
2021/07/18 06:45:09;;;;;;;6.70;5.27;;;19.80;99.90;;;;;;5031782;28;20266;-73
2021/07/18 06:47:35;;;;;;;7.03;4.87;;;19.70;99.90;;;;;;5033555;28;20187;-72
2021/07/18 06:50:00;;;;;;;5.07;4.60;;;19.70;99.90;;;;;;5033483;28;20177;-72
2021/07/18 06:52:26;;;;;;;6.37;4.60;;;19.70;99.90;;;;;;5033210;28;20206;-72
2021/07/18 06:54:53;;;;;;;6.43;4.63;;;19.80;99.90;;;;;;5033397;28;20661;-72
2021/07/18 06:57:19;;;;;;;5.87;5.37;;;19.90;99.90;;;;;;5033395;28;20197;-72
2021/07/18 06:59:46;;;;;;;8.70;5.00;;;19.80;99.90;;;;;;5033544;28;20197;-72
2021/07/18 07:02:11;;;;;;;5.43;4.80;;;20.00;99.90;;;;;;5033193;28;20228;-73
2021/07/18 07:04:37;;;;;;;8.37;4.90;;;20.10;99.90;;;;;;5033286;28;20704;-72
2021/07/18 07:07:03;;;;;;;8.00;4.97;;;20.20;99.90;;;;;;5028744;28;20179;-73
2021/07/18 07:09:29;;;;;;;7.40;4.73;;;20.30;99.90;;;;;;5033081;28;20191;-72
2021/07/18 07:11:54;;;;;;;6.70;4.17;;;20.20;99.90;;;;;;5032930;28;20232;-72
2021/07/18 07:14:20;;;;;;;6.80;3.90;;;20.10;99.90;;;;;;5015413;28;20213;-73
2021/07/18 07:16:46;;;;;;;7.00;4.53;;;20.20;99.90;;;;;;5033080;28;20732;-72
2021/07/18 07:19:11;;;;;;;5.83;4.20;;;20.20;99.90;;;;;;5033054;28;20711;-73
2021/07/18 07:21:37;;;;;;;5.93;4.37;;;20.10;99.90;;;;;;5015177;28;20193;-72
2021/07/18 07:24:03;;;;;;;5.97;4.13;;;20.20;99.90;;;;;;5033132;28;20171;-72
2021/07/18 07:26:29;;;;;;;7.73;4.10;;;20.20;99.90;;;;;;5032318;28;20204;-73
2021/07/18 07:28:55;;;;;;;7.53;4.40;;;20.20;99.90;;;;;;5030121;28;20183;-73
2021/07/18 07:31:21;;;;;;;6.17;4.13;;;20.20;99.90;;;;;;4999298;28;20516;-72
2021/07/18 07:33:46;;;;;;;4.93;4.33;;;20.20;99.90;;;;;;5032256;28;20277;-72
2021/07/18 07:36:14;;;;;;;8.67;4.40;;;20.30;99.90;;;;;;5032820;28;20185;-72
2021/07/18 07:38:40;;;;;;;8.03;4.40;;;20.40;99.90;;;;;;5032730;28;20723;-73
2021/07/18 07:41:05;;;;;;;8.23;4.33;;;20.50;99.90;;;;;;5032996;28;20194;-73
2021/07/18 07:43:31;;;;;;;7.23;3.93;;;20.50;99.90;;;;;;5032642;28;20205;-73
2021/07/18 07:45:57;;;;;;;9.67;4.40;;;20.50;99.90;;;;;;5024913;28;20187;-73
2021/07/18 07:48:22;;;;;;;7.17;4.20;;;20.60;99.90;;;;;;5023225;28;20182;-73
2021/07/18 07:50:48;;;;;;;5.20;4.30;;;20.70;99.90;;;;;;5032959;28;20208;-72
2021/07/18 07:53:14;;;;;;;12.13;4.00;;;20.70;99.90;;;;;;5037289;28;20206;-72
2021/07/18 07:55:39;;;;;;;8.77;4.60;;;20.70;99.90;;;;;;5013140;28;20178;-72
2021/07/18 07:58:07;;;;;;;8.73;4.23;;;20.90;99.90;;;;;;5025949;28;20178;-72
2021/07/18 08:00:33;;;;;;;4.40;3.97;;;20.90;99.90;;;;;;5023239;28;20179;-72
2021/07/18 08:02:59;;;;;;;10.20;4.27;;;21.00;99.90;;;;;;5011225;28;20280;-72
2021/07/18 08:05:24;;;;;;;4.20;3.80;;;21.00;99.90;;;;;;5029801;28;20179;-72
2021/07/18 08:07:50;;;;;;;6.87;3.90;;;21.10;99.90;;;;;;5029212;28;20653;-72
2021/07/18 08:10:21;;;;;;;8.90;4.13;;;21.20;99.90;;;;;;5022597;28;20182;-71
2021/07/18 08:12:47;;;;;;;8.20;3.40;;;21.30;99.90;;;;;;5018859;28;20212;-73
2021/07/18 08:15:16;;;;;;;7.23;3.70;;;21.40;99.90;;;;;;5034198;28;20175;-73
2021/07/18 08:17:42;;;;;;;6.30;3.77;;;21.50;99.90;;;;;;5031095;28;20167;-73
2021/07/18 08:20:11;;;;;;;6.27;3.63;;;21.40;99.90;;;;;;5030754;28;20174;-73
2021/07/18 16:53:59;;;;;;;5.13;4.73;;;25.00;99.90;;;;;;5128436;23;20477;-78
2021/07/18 16:56:25;;;;;;;6.63;4.20;;;25.00;99.90;;;;;;4983622;28;20188;-79
2021/07/18 16:58:51;;;;;;;5.90;4.07;;;25.00;99.90;;;;;;4960404;28;20177;-79
2021/07/18 17:01:17;;;;;;;6.17;4.60;;;25.00;99.90;;;;;;4979170;28;20187;-78
2021/07/18 17:03:43;;;;;;;6.67;4.27;;;24.90;99.90;;;;;;4979595;28;20206;-77
2021/07/18 17:06:09;;;;;;;4.77;3.40;;;24.90;99.90;;;;;;4980683;28;20184;-77
2021/07/18 17:08:35;;;;;;;7.40;5.00;;;24.90;99.90;;;;;;4949702;23;20234;-76
2021/07/18 17:11:05;;;;;;;6.03;5.07;;;24.90;99.90;;;;;;4923585;29;20196;-76
2021/07/18 17:13:36;;;;;;;6.43;4.60;;;24.80;99.90;;;;;;4931410;29;21739;-75
2021/07/18 17:16:02;;;;;;;6.87;5.17;;;24.80;99.90;;;;;;4939664;29;20170;-76
2021/07/18 17:18:27;;;;;;;7.80;4.50;;;24.80;99.90;;;;;;4928919;29;20684;-76
2021/07/18 17:20:53;;;;;;;5.40;4.60;;;24.80;99.90;;;;;;4934225;29;20258;-76
2021/07/18 17:23:19;;;;;;;5.73;5.23;;;24.80;99.90;;;;;;4926630;29;20282;-76
2021/07/18 17:25:44;;;;;;;5.43;4.93;;;24.80;99.90;;;;;;4935068;29;20225;-76
2021/07/18 17:28:10;;;;;;;5.23;4.73;;;24.70;99.90;;;;;;4933480;29;20202;-76
2021/07/18 17:30:36;;;;;;;8.20;5.07;;;24.60;99.90;;;;;;4925014;29;20178;-76
2021/07/18 17:33:03;;;;;;;5.37;4.87;;;24.60;99.90;;;;;;4931930;29;20262;-76
2021/07/18 17:35:29;;;;;;;10.37;5.03;;;24.60;99.90;;;;;;4927791;29;20178;-76
2021/07/18 17:37:55;;;;;;;10.50;4.90;;;24.60;99.90;;;;;;4932965;29;20204;-76
2021/07/18 17:40:21;;;;;;;5.50;4.70;;;24.60;99.90;;;;;;4934779;29;20197;-76
2021/07/18 17:42:47;;;;;;;5.00;3.23;;;24.60;99.90;;;;;;4930254;29;20187;-76
2021/07/18 17:45:13;;;;;;;3.43;2.97;;;24.60;99.90;;;;;;4933773;29;20241;-76
2021/07/18 17:47:39;;;;;;;3.33;2.50;;;24.60;99.90;;;;;;4927889;29;20202;-76
2021/07/18 17:50:07;;;;;;;4.73;3.20;;;24.60;99.90;;;;;;4926111;29;20185;-76
2021/07/18 17:52:33;;;;;;;3.07;2.20;;;24.60;99.90;;;;;;4932587;29;20245;-75
2021/07/18 17:54:59;;;;;;;5.07;4.50;;;24.60;99.90;;;;;;4931321;29;20174;-76
2021/07/18 17:57:25;;;;;;;4.73;3.73;;;24.60;99.90;;;;;;4933604;29;20198;-76
2021/07/18 17:59:50;;;;;;;5.37;4.23;;;24.50;99.90;;;;;;4932143;29;20170;-77
2021/07/18 18:02:16;;;;;;;43.37;34.37;;;24.50;99.90;;;;;;4929768;29;20692;-77
2021/07/18 18:04:42;;;;;;;48.27;36.17;;;24.40;99.90;;;;;;4926201;29;20552;-76
2021/07/18 18:07:07;;;;;;;11.37;10.20;;;24.30;99.90;;;;;;4931258;29;20205;-77
2021/07/18 18:09:33;;;;;;;27.43;21.20;;;24.30;99.90;;;;;;4929665;29;20321;-76
2021/07/18 18:11:59;;;;;;;8.13;7.33;;;24.30;99.90;;;;;;4934175;29;20590;-76
2021/07/18 18:14:25;;;;;;;15.73;13.50;;;24.30;99.90;;;;;;4928173;29;20213;-76
2021/07/18 18:16:51;;;;;;;14.00;12.50;;;24.20;99.90;;;;;;4923389;29;20664;-76
2021/07/18 18:19:17;;;;;;;277.53;210.23;;;24.20;99.90;;;;;;4928794;29;20193;-76
2021/07/18 18:21:43;;;;;;;61.40;47.07;;;24.20;99.90;;;;;;4931314;29;20277;-76
2021/07/18 18:24:14;;;;;;;19.17;16.77;;;24.20;99.90;;;;;;4934177;29;20195;-76
2021/07/18 18:26:41;;;;;;;6.93;4.33;;;24.10;99.90;;;;;;4934360;29;20197;-76
2021/07/18 18:29:08;;;;;;;4.60;4.00;;;24.10;99.90;;;;;;4928040;29;20668;-76
2021/07/18 18:31:35;;;;;;;127.57;96.73;;;24.10;99.90;;;;;;4927395;29;20277;-77
2021/07/18 18:34:03;;;;;;;26.97;21.63;;;24.00;99.90;;;;;;4922354;29;20203;-77
2021/07/18 18:36:29;;;;;;;6.13;3.20;;;24.00;99.90;;;;;;4935244;29;20272;-76
2021/07/18 18:38:55;;;;;;;12.83;11.50;;;24.00;99.90;;;;;;4928430;29;20747;-77
2021/07/18 18:41:21;;;;;;;5.10;3.30;;;23.90;99.90;;;;;;4929299;29;20228;-77
2021/07/18 18:43:47;;;;;;;5.70;4.53;;;23.80;99.90;;;;;;4932026;29;20192;-76
2021/07/18 18:46:14;;;;;;;11.43;5.10;;;23.70;99.90;;;;;;4933297;29;20197;-79
2021/07/18 18:48:39;;;;;;;5.20;4.70;;;23.70;99.90;;;;;;4929866;29;20221;-79
2021/07/18 18:51:05;;;;;;;6.87;5.83;;;23.60;99.90;;;;;;4933744;29;20185;-76
2021/07/18 18:53:31;;;;;;;12.63;11.33;;;23.50;99.90;;;;;;4930819;29;20217;-77
2021/07/18 18:55:57;;;;;;;28.93;21.80;;;23.50;99.90;;;;;;4925105;29;20189;-77
2021/07/18 18:58:22;;;;;;;35.77;26.47;;;23.50;99.90;;;;;;4932378;29;20206;-78
2021/07/18 19:00:48;;;;;;;26.43;20.63;;;23.40;99.90;;;;;;4944617;28;20644;-77
2021/07/18 19:03:15;;;;;;;63.10;45.07;;;23.40;99.90;;;;;;4934434;29;20265;-77
2021/07/18 19:05:44;;;;;;;24.17;17.93;;;23.40;99.90;;;;;;4932115;29;20186;-76
2021/07/18 19:08:11;;;;;;;30.20;23.17;;;23.30;99.90;;;;;;4932877;29;20681;-76
2021/07/18 19:10:36;;;;;;;19.70;13.23;;;23.30;99.90;;;;;;4926512;29;20240;-76
2021/07/18 19:13:03;;;;;;;11.53;10.53;;;23.30;99.90;;;;;;4925550;29;20289;-77
2021/07/18 19:15:29;;;;;;;7.40;4.50;;;23.20;99.90;;;;;;4927452;29;20236;-76
2021/07/18 19:17:55;;;;;;;5.93;4.63;;;23.10;99.90;;;;;;4922876;29;20698;-77
2021/07/18 19:20:21;;;;;;;8.63;6.73;;;23.00;99.90;;;;;;4924796;29;20611;-77
2021/07/18 19:22:47;;;;;;;6.77;6.07;;;23.00;99.90;;;;;;4926590;29;20183;-77
2021/07/18 19:25:13;;;;;;;6.87;3.87;;;22.90;99.90;;;;;;4923739;29;20204;-76
2021/07/18 19:27:39;;;;;;;4.80;4.30;;;22.70;99.90;;;;;;4924800;29;20633;-77
2021/07/18 19:30:12;;;;;;;4.63;3.63;;;22.50;99.90;;;;;;4927018;29;20206;-77
2021/07/18 19:32:38;;;;;;;6.37;3.63;;;22.40;99.90;;;;;;4930780;29;20574;-77
2021/07/18 19:35:04;;;;;;;4.10;3.50;;;22.30;99.90;;;;;;4926454;29;20265;-77
2021/07/18 19:37:30;;;;;;;4.07;3.67;;;22.30;99.90;;;;;;4930834;29;20209;-78
2021/07/18 19:39:56;;;;;;;6.83;4.37;;;22.10;99.90;;;;;;4931671;29;20277;-76
2021/07/18 19:42:23;;;;;;;6.17;4.00;;;22.20;99.90;;;;;;4927149;29;20632;-76
2021/07/18 19:44:50;;;;;;;4.83;4.30;;;22.20;99.90;;;;;;4922504;29;20178;-77
2021/07/18 19:47:16;;;;;;;6.17;5.67;;;22.00;99.90;;;;;;4924459;29;20561;-77
2021/07/18 19:49:41;;;;;;;5.77;4.40;;;22.00;99.90;;;;;;4940796;29;20281;-77
2021/07/18 19:52:07;;;;;;;4.50;4.10;;;21.90;99.90;;;;;;4928946;29;20192;-77
2021/07/18 19:54:32;;;;;;;4.87;4.37;;;21.90;99.90;;;;;;4923820;29;20210;-77
2021/07/18 19:56:58;;;;;;;6.47;4.17;;;21.80;99.90;;;;;;4933524;29;20528;-77
2021/07/18 19:59:25;;;;;;;5.53;4.63;;;21.80;99.90;;;;;;4927164;29;20604;-77
2021/07/18 20:01:51;;;;;;;5.37;4.30;;;21.70;99.90;;;;;;4931316;29;20225;-76
2021/07/18 20:04:17;;;;;;;4.50;4.10;;;21.80;99.90;;;;;;4930986;29;20193;-77
2021/07/18 20:06:43;;;;;;;4.70;4.30;;;21.60;99.90;;;;;;4933440;29;20554;-77
2021/07/18 20:09:08;;;;;;;8.73;4.80;;;21.50;99.90;;;;;;4928054;29;20229;-76
2021/07/18 20:11:34;;;;;;;6.70;4.60;;;21.60;99.90;;;;;;4930098;29;20649;-76
2021/07/18 20:14:00;;;;;;;6.00;4.90;;;21.50;99.90;;;;;;4928808;29;20288;-76
2021/07/18 20:16:27;;;;;;;5.33;4.93;;;21.40;99.90;;;;;;4926320;29;20191;-76
2021/07/18 20:18:53;;;;;;;6.43;4.37;;;21.40;99.90;;;;;;4924713;29;20616;-76
2021/07/18 20:21:19;;;;;;;6.57;5.00;;;21.40;99.90;;;;;;4919111;29;20190;-76
2021/07/18 20:23:45;;;;;;;5.90;5.33;;;21.30;99.90;;;;;;4928313;29;20652;-76
2021/07/18 20:26:11;;;;;;;6.87;5.60;;;21.10;99.90;;;;;;4922848;29;20199;-77
2021/07/18 20:28:37;;;;;;;5.13;4.63;;;21.20;99.90;;;;;;4925319;29;20206;-77
2021/07/18 20:31:02;;;;;;;5.83;4.60;;;21.20;99.90;;;;;;4932540;29;20218;-77
2021/07/18 20:33:29;;;;;;;4.97;4.57;;;21.20;99.90;;;;;;4930323;29;20684;-79
2021/07/18 20:35:55;;;;;;;5.60;4.63;;;21.20;99.90;;;;;;4936953;29;20562;-78
2021/07/18 20:38:21;;;;;;;5.00;4.17;;;21.60;99.90;;;;;;4935842;29;20210;-78
2021/07/18 20:40:47;;;;;;;6.30;4.70;;;21.10;99.90;;;;;;4936335;29;20185;-77
2021/07/18 20:43:12;;;;;;;7.50;4.70;;;21.00;99.90;;;;;;4937314;29;20268;-77
2021/07/18 20:45:38;;;;;;;7.13;4.70;;;20.90;99.90;;;;;;4936751;29;20548;-77
2021/07/18 20:48:04;;;;;;;5.23;4.70;;;20.80;99.90;;;;;;4937781;29;20198;-77
2021/07/18 20:50:30;;;;;;;6.03;5.30;;;20.60;99.90;;;;;;4938235;29;20656;-78
2021/07/18 20:52:56;;;;;;;6.13;5.30;;;20.60;99.90;;;;;;4937221;29;20269;-77
2021/07/18 20:55:21;;;;;;;7.87;4.93;;;20.50;99.90;;;;;;4938700;29;20253;-76
2021/07/18 20:57:47;;;;;;;7.70;5.47;;;20.50;99.90;;;;;;4938417;29;20743;-76
2021/07/18 21:00:13;;;;;;;6.50;4.83;;;20.50;99.90;;;;;;4938412;29;20177;-77
2021/07/18 21:02:39;;;;;;;6.00;5.50;;;20.40;99.90;;;;;;4937247;29;20237;-77